createdAt,value
2023-01-30T00:01:31.368Z,29.23
2023-01-30T00:04:01.136Z,31.47
2023-01-30T00:06:29.378Z,31.93
2023-01-30T00:08:57.454Z,32.93
2023-01-30T00:17:32.006Z,31.80
2023-01-30T00:20:01.452Z,25.97
2023-01-30T00:22:29.658Z,31.70
2023-01-30T00:24:57.965Z,30.17
2023-01-30T00:27:26.049Z,33.00
2023-01-30T00:30:02.593Z,32.10
2023-01-30T00:32:31.198Z,35.37
2023-01-30T00:34:59.347Z,30.17
2023-01-30T00:37:28.697Z,31.30
2023-01-30T00:39:56.706Z,32.73
2023-01-30T00:42:42.134Z,32.47
2023-01-30T00:45:29.774Z,29.90
2023-01-30T00:47:58.287Z,33.50
2023-01-30T00:50:42.280Z,29.70
2023-01-30T00:53:13.613Z,35.80
2023-01-30T00:55:43.201Z,33.90
2023-01-30T00:58:11.454Z,31.03
2023-01-30T01:00:41.517Z,31.50
2023-01-30T01:03:09.688Z,34.33
2023-01-30T01:05:37.893Z,38.47
2023-01-30T01:08:06.932Z,33.83
2023-01-30T01:10:36.463Z,34.50
2023-01-30T01:54:49.208Z,27.40
2023-01-30T01:57:21.024Z,28.73
2023-01-30T01:59:52.943Z,30.50
2023-01-30T02:02:22.702Z,27.60
2023-01-30T02:05:07.087Z,29.00
2023-01-30T02:07:38.871Z,26.50
2023-01-30T02:10:11.492Z,32.47
2023-01-30T02:12:40.696Z,27.53
2023-01-30T02:15:09.602Z,25.60
2023-01-30T02:17:37.795Z,26.17
2023-01-30T02:20:11.806Z,25.63
2023-01-30T02:23:06.899Z,25.43
2023-01-30T02:26:17.530Z,28.80
2023-01-30T02:29:06.670Z,30.07
2023-01-30T02:31:41.615Z,27.13
2023-01-30T02:34:23.526Z,25.13
2023-01-30T02:37:02.296Z,26.30
2023-01-30T02:39:39.605Z,29.60
2023-01-30T02:42:20.540Z,22.30
2023-01-30T02:45:00.281Z,21.87
2023-01-30T02:47:35.001Z,23.43
2023-01-30T02:50:09.666Z,23.90
2023-01-30T02:52:38.445Z,24.87
2023-01-30T02:55:10.736Z,21.33
2023-01-30T02:57:38.677Z,22.70
2023-01-30T03:00:08.531Z,19.67
2023-01-30T03:03:07.538Z,19.07
2023-01-30T03:05:54.649Z,20.27
2023-01-30T03:08:32.882Z,19.87
2023-01-30T03:11:03.066Z,16.87
2023-01-30T03:13:43.578Z,18.80
2023-01-30T03:16:16.856Z,17.77
2023-01-30T03:18:47.612Z,19.17
2023-01-30T03:21:16.039Z,16.30
2023-01-30T03:23:46.141Z,17.93
2023-01-30T03:26:19.392Z,16.47
2023-01-30T03:28:49.768Z,16.67
2023-01-30T03:31:18.145Z,17.13
2023-01-30T03:33:47.639Z,15.23
2023-01-30T03:36:15.834Z,14.17
2023-01-30T03:38:43.800Z,13.90
2023-01-30T03:41:12.268Z,13.10
2023-01-30T03:43:40.185Z,14.60
2023-01-30T03:46:08.160Z,13.37
2023-01-30T03:48:36.261Z,11.93
2023-01-30T03:51:06.066Z,10.80
2023-01-30T03:53:34.013Z,10.23
2023-01-30T03:56:02.119Z,9.63
2023-01-30T03:58:30.219Z,8.73
2023-01-30T04:00:58.268Z,8.23
2023-01-30T04:03:26.352Z,8.10
2023-01-30T04:05:54.324Z,8.53
2023-01-30T04:08:23.711Z,8.97
2023-01-30T04:10:51.800Z,7.83
2023-01-30T04:13:19.777Z,12.40
2023-01-30T04:15:47.731Z,8.83
2023-01-30T04:18:15.879Z,6.30
2023-01-30T04:20:43.819Z,7.53
2023-01-30T04:23:11.793Z,7.77
2023-01-30T04:25:41.249Z,7.40
2023-01-30T04:28:09.209Z,6.60
2023-01-30T04:30:37.230Z,5.20
2023-01-30T04:33:05.347Z,3.73
2023-01-30T04:35:33.278Z,6.20
2023-01-30T04:38:01.210Z,3.33
2023-01-30T04:40:29.189Z,2.13
2023-01-30T04:42:58.489Z,5.40
2023-01-30T04:45:26.515Z,2.93
2023-01-30T04:47:55.430Z,4.60
2023-01-30T04:50:23.445Z,7.73
2023-01-30T04:52:52.061Z,9.63
2023-01-30T04:55:20.372Z,6.27
2023-01-30T04:57:48.406Z,15.87
2023-01-30T05:00:18.537Z,9.90
2023-01-30T05:02:46.607Z,9.13
2023-01-30T05:05:14.735Z,6.07
2023-01-30T05:07:42.685Z,7.70
2023-01-30T05:10:12.101Z,13.47
2023-01-30T05:12:40.087Z,12.53
2023-01-30T05:15:09.020Z,10.60
2023-01-30T05:17:38.870Z,16.47
2023-01-30T05:20:09.283Z,11.43
2023-01-30T05:22:37.320Z,15.77
2023-01-30T05:25:06.388Z,14.37
2023-01-30T05:27:34.361Z,11.00
2023-01-30T05:30:02.335Z,13.67
2023-01-30T05:32:31.351Z,12.63
2023-01-30T05:35:00.694Z,12.47
2023-01-30T05:37:28.906Z,16.30
2023-01-30T05:39:57.028Z,13.57
2023-01-30T05:42:25.368Z,11.97
2023-01-30T05:44:53.363Z,10.40
2023-01-30T05:47:21.392Z,18.10
2023-01-30T05:49:49.375Z,17.57
2023-01-30T05:52:18.730Z,20.60
2023-01-30T05:54:46.879Z,20.07
2023-01-30T05:57:14.838Z,20.77
2023-01-30T05:59:42.823Z,19.70
2023-01-30T06:02:11.908Z,19.80
2023-01-30T06:04:40.115Z,17.70
2023-01-30T06:07:08.153Z,18.87
2023-01-30T06:09:37.566Z,15.93
2023-01-30T06:12:07.461Z,26.73
2023-01-30T06:14:35.467Z,22.67
2023-01-30T06:17:03.533Z,16.80
2023-01-30T06:19:31.769Z,26.60
2023-01-30T06:21:59.929Z,18.27
2023-01-30T06:24:28.099Z,16.60
2023-01-30T06:26:57.487Z,24.57
2023-01-30T06:29:25.746Z,14.90
2023-01-30T06:31:54.172Z,17.17
2023-01-30T06:34:22.601Z,23.30
2023-01-30T06:36:50.595Z,18.10
2023-01-30T06:39:18.875Z,16.23
2023-01-30T06:41:46.828Z,10.80
2023-01-30T06:44:16.187Z,17.87
2023-01-30T06:46:44.230Z,19.27
2023-01-30T06:49:12.197Z,20.03
2023-01-30T06:51:40.145Z,22.90
2023-01-30T06:54:08.281Z,24.20
2023-01-30T06:56:36.312Z,15.77
2023-01-30T06:59:04.309Z,11.63
2023-01-30T07:01:33.834Z,13.37
2023-01-30T07:04:01.910Z,15.27
2023-01-30T07:06:29.991Z,16.60
2023-01-30T07:08:58.959Z,17.63
2023-01-30T07:11:27.288Z,12.37
2023-01-30T07:13:55.218Z,15.73
2023-01-30T07:16:28.949Z,14.00
2023-01-30T07:18:58.850Z,20.53
2023-01-30T07:21:27.455Z,15.20
2023-01-30T07:23:55.996Z,13.43
2023-01-30T07:26:24.862Z,17.83
2023-01-30T07:28:52.841Z,15.93
2023-01-30T07:31:21.001Z,20.83
2023-01-30T07:33:49.053Z,19.23
2023-01-30T07:36:18.425Z,15.67
2023-01-30T07:38:48.819Z,23.37
2023-01-30T07:41:16.789Z,22.63
2023-01-30T07:43:44.772Z,24.40
2023-01-30T07:46:12.853Z,14.27
2023-01-30T07:48:40.842Z,16.13
2023-01-30T07:51:08.907Z,14.90
2023-01-30T07:53:38.529Z,20.27
2023-01-30T07:56:08.540Z,11.07
2023-01-30T07:58:37.042Z,13.73
2023-01-30T08:01:06.284Z,14.33
2023-01-30T08:03:34.304Z,19.80
2023-01-30T08:06:02.332Z,18.70
2023-01-30T08:08:30.618Z,11.40
2023-01-30T08:10:59.947Z,15.77
2023-01-30T08:13:28.007Z,14.47
2023-01-30T08:15:56.131Z,26.17
2023-01-30T08:18:24.173Z,20.60
2023-01-30T08:20:52.133Z,19.90
2023-01-30T08:23:20.419Z,13.20
2023-01-30T08:25:48.377Z,19.90
2023-01-30T08:28:17.716Z,13.33
2023-01-30T08:30:45.972Z,19.63
2023-01-30T08:33:13.964Z,22.40
2023-01-30T08:35:42.114Z,18.77
2023-01-30T08:38:10.484Z,18.57
2023-01-30T08:40:38.659Z,17.50
2023-01-30T08:43:08.481Z,23.60
2023-01-30T08:45:38.338Z,15.80
2023-01-30T08:48:07.997Z,18.97
2023-01-30T08:50:36.317Z,14.50
2023-01-30T08:53:06.673Z,18.23
2023-01-30T08:55:34.877Z,17.50
2023-01-30T08:58:03.724Z,13.57
2023-01-30T09:00:33.164Z,18.87
2023-01-30T09:03:12.281Z,17.53
2023-01-30T09:05:40.564Z,19.67
2023-01-30T09:08:09.050Z,16.53
2023-01-30T09:16:44.193Z,21.13
2023-01-30T09:19:13.675Z,13.10
2023-01-30T09:21:41.772Z,16.67
2023-01-30T09:24:09.933Z,20.13
2023-01-30T09:26:37.927Z,15.73
2023-01-30T09:29:06.033Z,19.20
2023-01-30T09:31:34.179Z,23.77
2023-01-30T09:34:02.239Z,16.87
2023-01-30T09:36:31.906Z,16.43
2023-01-30T09:39:00.017Z,16.20
2023-01-30T09:41:49.491Z,22.07
2023-01-30T09:44:53.575Z,17.97
2023-01-30T09:47:29.356Z,18.60
2023-01-30T09:50:06.385Z,14.27
2023-01-30T09:52:47.237Z,17.23
2023-01-30T09:55:20.210Z,16.37
2023-01-30T09:57:49.704Z,9.30
2023-01-30T10:00:26.098Z,14.27
2023-01-30T10:03:03.132Z,14.73
2023-01-30T10:05:39.746Z,12.97
2023-01-30T10:08:39.484Z,12.13
2023-01-30T10:11:18.440Z,13.83
2023-01-30T10:14:01.588Z,13.00
2023-01-30T10:16:35.356Z,25.00
2023-01-30T10:19:36.451Z,14.93
2023-01-30T10:22:15.030Z,13.80
2023-01-30T10:24:57.978Z,14.40
2023-01-30T10:27:30.235Z,14.30
2023-01-30T10:30:02.357Z,10.83
2023-01-30T10:32:42.705Z,12.03
2023-01-30T10:35:18.959Z,8.27
2023-01-30T10:37:54.672Z,11.60
2023-01-30T10:40:29.467Z,14.80
2023-01-30T10:43:04.436Z,16.33
2023-01-30T10:45:40.967Z,11.90
2023-01-30T10:48:45.326Z,14.10
2023-01-30T10:51:24.545Z,12.83
2023-01-30T10:53:57.601Z,12.17
2023-01-30T10:56:37.001Z,17.47
2023-01-30T10:59:16.926Z,16.10
2023-01-30T11:01:51.055Z,17.27
2023-01-30T11:04:27.000Z,12.87
2023-01-30T11:06:56.770Z,14.77
2023-01-30T11:09:24.889Z,16.50
2023-01-30T11:11:55.766Z,28.37
2023-01-30T11:14:23.795Z,18.67
2023-01-30T11:16:54.076Z,19.43
2023-01-30T11:19:25.509Z,15.70
2023-01-30T11:21:56.521Z,14.47
2023-01-30T11:24:29.791Z,7.43
2023-01-30T11:27:11.198Z,17.47
2023-01-30T11:29:40.713Z,8.23
2023-01-30T11:32:15.749Z,13.10
2023-01-30T11:34:45.555Z,11.27
2023-01-30T11:37:16.174Z,14.90
2023-01-30T11:39:53.710Z,14.20
2023-01-30T11:42:26.691Z,13.83
2023-01-30T11:45:10.629Z,12.90
2023-01-30T11:47:57.926Z,10.93
2023-01-30T11:50:36.300Z,17.80
2023-01-30T11:53:21.814Z,13.03
2023-01-30T11:56:03.080Z,15.80
2023-01-30T11:58:37.714Z,17.93
2023-01-30T12:01:07.328Z,13.47
2023-01-30T12:03:40.531Z,14.33
2023-01-30T12:06:08.666Z,18.97
2023-01-30T12:08:42.140Z,14.40
2023-01-30T12:11:33.402Z,12.93
2023-01-30T12:14:24.130Z,13.33
2023-01-30T12:17:00.351Z,9.47
2023-01-30T12:19:36.868Z,19.47
2023-01-30T12:22:14.021Z,15.03
2023-01-30T12:24:47.347Z,26.97
2023-01-30T12:27:21.184Z,13.77
2023-01-30T12:30:00.585Z,13.37
2023-01-30T12:32:30.434Z,13.40
2023-01-30T12:34:59.753Z,17.30
2023-01-30T12:37:41.282Z,19.10
2023-01-30T12:40:18.834Z,8.87
2023-01-30T12:43:06.437Z,9.70
2023-01-30T12:45:41.406Z,15.03
2023-01-30T12:48:40.831Z,3.47
2023-01-30T12:51:33.482Z,5.00
2023-01-30T12:54:09.156Z,6.27
2023-01-30T12:56:49.914Z,6.40
2023-01-30T12:59:23.248Z,8.33
2023-01-30T13:02:03.881Z,8.47
2023-01-30T13:10:42.668Z,7.47
2023-01-30T13:13:18.845Z,12.40
2023-01-30T13:15:56.334Z,12.33
2023-01-30T13:18:31.670Z,14.77
2023-01-30T13:21:08.242Z,7.50
2023-01-30T13:23:46.193Z,11.60
2023-01-30T13:26:19.517Z,16.63
2023-01-30T13:28:50.230Z,6.13
2023-01-30T13:31:21.424Z,9.67
2023-01-30T13:33:52.761Z,13.40
2023-01-30T13:36:25.558Z,7.57
2023-01-30T13:39:00.776Z,17.13
2023-01-30T13:41:33.911Z,16.20
2023-01-30T13:44:07.144Z,11.33
2023-01-30T13:46:39.338Z,15.70
2023-01-30T13:49:16.552Z,15.37
2023-01-30T13:51:49.401Z,11.03
2023-01-30T13:54:44.772Z,13.40
2023-01-30T13:57:22.091Z,19.03
2023-01-30T14:00:22.520Z,17.07
2023-01-30T14:03:17.918Z,12.93
2023-01-30T14:06:14.403Z,13.03
2023-01-30T14:08:53.533Z,12.97
2023-01-30T14:11:43.436Z,22.73
2023-01-30T14:14:32.821Z,14.00
2023-01-30T14:17:12.008Z,19.90
2023-01-30T14:19:44.282Z,22.10
2023-01-30T14:22:24.561Z,22.80
2023-01-30T14:25:35.444Z,21.73
2023-01-30T14:28:48.296Z,16.27
2023-01-30T14:31:52.072Z,22.70
2023-01-30T14:34:48.234Z,15.43
2023-01-30T14:37:57.129Z,22.30
2023-01-30T14:40:36.892Z,15.93
2023-01-30T14:43:41.819Z,14.63
2023-01-30T14:46:29.489Z,12.50
2023-01-30T14:49:05.096Z,18.50
2023-01-30T14:51:37.009Z,14.30
2023-01-30T14:54:11.407Z,16.33
2023-01-30T14:56:48.034Z,14.90
2023-01-30T14:59:25.208Z,14.30
2023-01-30T15:02:15.928Z,16.33
2023-01-30T15:04:47.250Z,19.70
2023-01-30T15:07:20.018Z,16.60
2023-01-30T15:09:56.665Z,23.17
2023-01-30T15:12:48.253Z,13.93
2023-01-30T15:15:24.353Z,14.30
2023-01-30T15:18:14.517Z,18.77
2023-01-30T15:21:03.356Z,17.77
2023-01-30T15:24:00.435Z,12.77
2023-01-30T15:26:40.367Z,19.13
2023-01-30T15:29:41.587Z,29.83
2023-01-30T15:32:19.350Z,10.83
2023-01-30T15:34:52.219Z,12.73
2023-01-30T15:37:34.267Z,13.70
2023-01-30T15:40:33.197Z,17.03
2023-01-30T15:43:22.212Z,21.53
2023-01-30T15:46:06.037Z,16.40
2023-01-30T15:48:47.087Z,19.87
2023-01-30T15:51:17.354Z,12.87
2023-01-30T15:53:48.395Z,11.40
2023-01-30T15:56:20.595Z,11.47
2023-01-30T15:58:49.416Z,11.70
2023-01-30T16:01:22.203Z,7.93
2023-01-30T16:03:53.262Z,10.00
2023-01-30T16:06:24.155Z,10.20
2023-01-30T16:09:01.557Z,18.97
2023-01-30T16:11:38.744Z,13.00
2023-01-30T16:14:07.842Z,11.40
2023-01-30T16:16:37.982Z,10.03
2023-01-30T16:19:09.052Z,10.80
2023-01-30T16:21:40.059Z,14.07
2023-01-30T16:24:17.617Z,15.40
2023-01-30T16:26:48.695Z,17.67
2023-01-30T16:29:19.025Z,16.03
2023-01-30T16:31:50.143Z,15.53
2023-01-30T16:34:30.903Z,18.40
2023-01-30T16:37:04.206Z,10.23
2023-01-30T16:39:34.450Z,9.70
2023-01-30T16:42:05.141Z,13.53
2023-01-30T16:44:33.650Z,12.30
2023-01-30T16:47:05.207Z,8.93
2023-01-30T16:49:46.643Z,15.70
2023-01-30T16:52:21.580Z,8.40
2023-01-30T16:54:52.583Z,16.40
2023-01-30T16:57:36.088Z,13.80
2023-01-30T17:00:09.794Z,7.67
2023-01-30T17:02:43.142Z,16.17
2023-01-30T17:05:19.662Z,12.97
2023-01-30T17:07:49.120Z,9.50
2023-01-30T17:10:51.258Z,9.67
2023-01-30T17:13:33.236Z,11.83
2023-01-30T17:16:33.675Z,16.80
2023-01-30T17:19:03.748Z,9.00
2023-01-30T17:21:35.965Z,13.00
2023-01-30T17:24:06.307Z,12.93
2023-01-30T17:26:34.847Z,10.20
2023-01-30T17:29:02.881Z,7.17
2023-01-30T17:31:31.016Z,18.07
2023-01-30T17:33:59.068Z,11.07
2023-01-30T17:36:30.487Z,10.87
2023-01-30T17:39:00.479Z,12.40
2023-01-30T17:41:30.866Z,10.17
2023-01-30T17:43:59.224Z,14.23
2023-01-30T17:46:34.864Z,12.93
2023-01-30T17:49:02.851Z,17.43
2023-01-30T17:51:32.207Z,15.63
2023-01-30T17:54:00.281Z,22.53
2023-01-30T17:56:34.827Z,11.03
2023-01-30T17:59:04.094Z,20.80
2023-01-30T18:01:32.173Z,14.77
2023-01-30T18:04:00.153Z,13.73
2023-01-30T18:06:29.923Z,14.57
2023-01-30T18:08:59.296Z,20.43
2023-01-30T18:11:27.273Z,22.13
2023-01-30T18:13:55.331Z,15.80
2023-01-30T18:16:26.355Z,20.60
2023-01-30T18:18:54.290Z,23.53
2023-01-30T18:21:22.583Z,19.20
2023-01-30T18:23:50.829Z,19.60
2023-01-30T18:26:20.452Z,14.50
2023-01-30T18:28:49.092Z,21.53
2023-01-30T18:31:17.642Z,16.83
2023-01-30T18:33:46.020Z,23.13
2023-01-30T18:36:15.565Z,19.47
2023-01-30T18:38:43.989Z,18.93
2023-01-30T18:41:13.617Z,25.27
2023-01-30T18:43:43.760Z,25.80
2023-01-30T18:46:14.341Z,20.30
2023-01-30T18:48:42.968Z,19.63
2023-01-30T18:51:13.406Z,23.00
2023-01-30T18:53:41.856Z,21.43
2023-01-30T18:56:10.566Z,26.53
2023-01-30T18:58:38.951Z,19.63
2023-01-30T19:01:14.051Z,19.67
2023-01-30T19:03:42.584Z,14.03
2023-01-30T19:06:11.984Z,17.13
2023-01-30T19:08:39.980Z,14.67
2023-01-30T19:11:23.165Z,11.90
2023-01-30T19:13:51.163Z,16.27
2023-01-30T19:16:20.577Z,10.87
2023-01-30T19:18:49.865Z,18.67
2023-01-30T19:21:17.962Z,14.23
2023-01-30T19:23:46.410Z,16.30
2023-01-30T19:26:14.825Z,15.33
2023-01-30T19:28:44.562Z,14.50
2023-01-30T19:31:14.848Z,14.63
2023-01-30T19:33:45.227Z,12.37
2023-01-30T19:36:15.803Z,13.57
2023-01-30T19:38:44.603Z,14.13
2023-01-30T19:41:13.615Z,12.60
2023-01-30T19:43:42.607Z,10.93
2023-01-30T19:46:11.780Z,8.03
2023-01-30T19:48:42.783Z,12.20
2023-01-30T19:51:14.531Z,8.93
2023-01-30T19:53:43.618Z,17.93
2023-01-30T19:56:12.907Z,13.57
2023-01-30T19:58:41.666Z,9.53
2023-01-30T20:01:11.799Z,15.63
2023-01-30T20:03:40.652Z,13.33
2023-01-30T20:06:12.868Z,14.97
2023-01-30T20:08:43.329Z,9.63
2023-01-30T20:11:15.034Z,14.23
2023-01-30T20:13:43.951Z,20.43
2023-01-30T20:16:13.994Z,10.63
2023-01-30T20:18:44.129Z,11.97
2023-01-30T20:21:14.006Z,19.73
2023-01-30T20:23:44.805Z,12.77
2023-01-30T20:26:14.823Z,19.63
2023-01-30T20:28:43.314Z,20.70
2023-01-30T20:31:13.732Z,18.17
2023-01-30T20:33:42.249Z,11.63
2023-01-30T20:36:12.866Z,16.63
2023-01-30T20:38:44.336Z,14.73
2023-01-30T20:41:14.837Z,13.50
2023-01-30T20:43:45.350Z,15.60
2023-01-30T20:46:15.941Z,13.57
2023-01-30T20:48:44.429Z,14.67
2023-01-30T20:51:14.731Z,11.77
2023-01-30T20:53:48.501Z,19.67
2023-01-30T20:56:16.805Z,21.30
2023-01-30T20:58:44.857Z,14.73
2023-01-30T21:01:17.679Z,11.23
2023-01-30T21:03:49.601Z,17.07
2023-01-30T21:06:37.057Z,13.60
2023-01-30T21:09:14.255Z,12.27
2023-01-30T21:11:42.380Z,20.23
2023-01-30T21:14:10.615Z,13.00
2023-01-30T21:16:39.418Z,11.87
2023-01-30T21:19:13.932Z,17.83
2023-01-30T21:21:45.126Z,14.13
2023-01-30T21:24:16.166Z,22.60
2023-01-30T21:26:46.614Z,11.17
2023-01-30T21:29:16.637Z,13.70
2023-01-30T21:31:45.393Z,15.17
2023-01-30T21:34:14.016Z,15.70
2023-01-30T21:36:42.725Z,17.23
2023-01-30T21:39:32.789Z,21.97
2023-01-30T21:42:18.882Z,15.90
2023-01-30T21:44:47.771Z,13.40
2023-01-30T21:47:15.852Z,14.43
2023-01-30T21:49:45.967Z,12.57
2023-01-30T21:52:14.072Z,11.07
2023-01-30T21:54:43.789Z,13.07
2023-01-30T21:57:12.242Z,14.10
2023-01-30T21:59:40.367Z,14.77
2023-01-30T22:02:08.452Z,15.80
2023-01-30T22:04:36.854Z,19.57
2023-01-30T22:07:06.844Z,10.47
2023-01-30T22:09:35.116Z,19.30
2023-01-30T22:12:04.897Z,13.73
2023-01-30T22:14:35.244Z,18.17
2023-01-30T22:17:03.623Z,11.20
2023-01-30T22:19:35.670Z,11.50
2023-01-30T22:22:04.888Z,6.57
2023-01-30T22:24:33.003Z,19.07
2023-01-30T22:27:01.110Z,9.50
2023-01-30T22:29:30.554Z,14.60
2023-01-30T22:31:58.632Z,11.70
2023-01-30T22:34:26.885Z,22.40
2023-01-30T22:36:55.092Z,14.57
2023-01-30T22:39:27.299Z,10.20
2023-01-30T23:04:26.431Z,13.00
2023-01-30T23:06:54.425Z,8.47
2023-01-30T23:09:24.338Z,12.27
